Time;durP1;ratioP1;P1;durP2;ratioP2;P2;SDS_P1;SDS_P2;PMS_P1;PMS_P2;Temp;Humidity;BMP_temperature;BMP_pressure;BME280_temperature;BME280_humidity;BME280_pressure;Samples;Min_cycle;Max_cycle;Signal;HPM_P1;HPM_P2
2022/01/31 00:02:14;;;;;;;33.23;2.87;;;4.50;77.60;;;4.25;54.75;94824.09;5042146;28;20468;-57
2022/01/31 00:04:43;;;;;;;14.40;3.70;;;4.50;77.30;;;4.24;53.93;94819.00;5045257;28;20467;-56
2022/01/31 00:07:11;;;;;;;8.13;3.43;;;4.40;76.70;;;4.24;54.90;94834.63;5036067;28;21161;-56
2022/01/31 00:09:40;;;;;;;32.27;3.27;;;4.40;76.90;;;4.24;54.49;94835.44;5035966;28;20507;-58
2022/01/31 00:12:11;;;;;;;15.03;2.90;;;4.40;76.40;;;4.24;54.50;94827.63;5040973;28;20475;-57
2022/01/31 00:14:41;;;;;;;10.80;3.17;;;4.40;76.60;;;4.23;54.66;94836.38;5035342;28;20477;-57
2022/01/31 00:17:09;;;;;;;11.97;3.50;;;4.40;76.30;;;4.22;54.69;94833.88;5037099;28;20563;-55
2022/01/31 00:19:36;;;;;;;14.70;3.10;;;4.40;76.30;;;4.20;54.42;94841.81;5041097;28;20467;-56
2022/01/31 00:22:05;;;;;;;15.80;3.53;;;4.40;76.30;;;4.22;54.57;94845.13;5035469;28;20576;-55
2022/01/31 00:24:33;;;;;;;22.63;2.80;;;4.40;76.50;;;4.22;54.63;94844.31;5036251;28;20464;-57
2022/01/31 00:27:01;;;;;;;21.23;3.57;;;4.40;76.50;;;4.23;54.53;94846.81;5037829;28;20559;-57
2022/01/31 00:29:28;;;;;;;18.40;3.20;;;4.40;76.30;;;4.25;54.74;94846.69;5039689;28;20448;-55
2022/01/31 00:31:55;;;;;;;8.10;3.07;;;4.50;77.00;;;4.27;54.67;94845.66;5035821;28;20469;-57
2022/01/31 00:34:23;;;;;;;15.03;3.13;;;4.50;76.40;;;4.28;54.55;94844.72;5041367;28;20495;-58
2022/01/31 00:36:50;;;;;;;34.67;4.03;;;4.50;76.30;;;4.28;54.14;94844.72;5036820;28;20468;-56
2022/01/31 00:39:19;;;;;;;3.80;2.30;;;4.50;76.10;;;4.31;54.50;94848.91;5039907;28;20842;-56
2022/01/31 00:41:46;;;;;;;12.63;3.57;;;4.50;76.10;;;4.33;53.95;94843.59;5036515;28;20469;-57
2022/01/31 00:44:21;;;;;;;9.33;2.80;;;4.50;76.10;;;4.35;53.90;94846.91;5039246;28;20457;-56
2022/01/31 00:46:52;;;;;;;9.00;2.50;;;4.60;75.70;;;4.33;53.92;94839.19;5039023;28;20496;-57
2022/01/31 00:49:35;;;;;;;8.57;2.60;;;4.60;75.60;;;4.34;53.58;94858.25;5037180;28;20453;-57
2022/01/31 00:52:03;;;;;;;7.03;3.00;;;4.50;75.20;;;4.34;53.76;94853.91;5037807;28;20480;-56
2022/01/31 00:54:31;;;;;;;21.80;3.30;;;4.60;75.20;;;4.36;54.11;94852.03;5043731;28;20490;-56
2022/01/31 00:56:59;;;;;;;14.43;2.67;;;4.50;75.40;;;4.37;54.04;94855.44;5040644;28;20474;-56
2022/01/31 00:59:26;;;;;;;16.10;2.50;;;4.60;75.30;;;4.35;53.81;94855.53;5041835;28;20455;-56
2022/01/31 01:01:53;;;;;;;17.37;3.20;;;4.60;75.00;;;4.35;53.50;94854.72;5035365;28;20845;-57
2022/01/31 01:04:21;;;;;;;7.67;2.30;;;4.50;74.80;;;4.35;54.01;94852.13;5036946;28;20472;-57
2022/01/31 01:06:48;;;;;;;29.87;2.70;;;4.60;75.00;;;4.37;53.68;94871.06;5039057;28;20464;-56
2022/01/31 01:09:15;;;;;;;7.93;2.20;;;4.60;74.80;;;4.38;53.64;94865.75;5035648;28;20444;-56
2022/01/31 01:11:44;;;;;;;21.23;3.50;;;4.60;74.90;;;4.40;53.78;94863.06;5039599;28;20551;-56
2022/01/31 01:14:11;;;;;;;11.93;2.73;;;4.60;74.60;;;4.40;53.52;94857.84;5038002;28;20493;-59
2022/01/31 01:16:39;;;;;;;13.20;2.53;;;4.60;74.60;;;4.41;53.46;94860.34;5039137;28;20503;-57
2022/01/31 01:19:06;;;;;;;18.27;2.80;;;4.60;74.60;;;4.43;53.28;94862.84;5042850;28;20456;-57
2022/01/31 01:21:33;;;;;;;16.50;2.90;;;4.60;74.10;;;4.41;53.16;94856.91;5038345;28;20487;-57
2022/01/31 01:24:00;;;;;;;13.67;2.63;;;4.60;73.80;;;4.44;52.76;94859.31;5039673;28;20463;-56
2022/01/31 01:26:28;;;;;;;5.80;2.10;;;4.70;73.60;;;4.46;53.23;94860.91;5039312;28;20629;-55
2022/01/31 01:28:57;;;;;;;8.70;2.57;;;4.70;73.70;;;4.46;53.25;94853.09;5037942;28;20455;-55
2022/01/31 01:31:24;;;;;;;14.50;2.10;;;4.70;73.30;;;4.49;52.72;94846.81;5037071;28;20480;-57
2022/01/31 01:33:52;;;;;;;4.87;1.93;;;4.70;73.10;;;4.51;53.11;94844.97;5038971;28;20900;-54
2022/01/31 01:36:20;;;;;;;12.47;2.30;;;4.70;73.10;;;4.52;52.20;94857.03;5037486;28;20472;-57
2022/01/31 01:38:48;;;;;;;16.63;2.60;;;4.70;71.70;;;4.53;52.83;94847.47;5040620;28;20463;-56
2022/01/31 01:41:15;;;;;;;9.67;1.93;;;4.70;72.20;;;4.52;52.33;94841.41;5036431;28;20473;-56
2022/01/31 01:43:42;;;;;;;10.90;2.83;;;4.80;72.40;;;4.54;52.48;94849.09;5034603;28;20459;-57
2022/01/31 01:46:11;;;;;;;18.40;3.00;;;4.80;71.60;;;4.54;52.43;94839.53;5043171;28;20480;-56
2022/01/31 01:48:38;;;;;;;4.27;2.00;;;4.70;72.20;;;4.55;52.26;94841.19;5037643;28;20475;-56
2022/01/31 01:51:06;;;;;;;11.27;2.63;;;4.80;71.80;;;4.58;52.15;94845.38;5037466;28;21058;-55
2022/01/31 01:53:33;;;;;;;7.73;2.50;;;4.80;72.30;;;4.58;52.16;94845.38;5033571;28;20484;-55
2022/01/31 01:56:01;;;;;;;6.20;2.20;;;4.80;71.60;;;4.57;52.06;94843.69;5037580;28;20500;-55
2022/01/31 01:58:36;;;;;;;10.77;2.33;;;4.80;71.60;;;4.58;51.83;94843.59;5036629;28;20790;-57
2022/01/31 02:01:04;;;;;;;8.73;2.30;;;4.80;71.50;;;4.58;51.98;94847.97;5035005;28;20556;-56
2022/01/31 02:03:35;;;;;;;20.90;2.43;;;4.80;71.30;;;4.58;51.91;94848.78;5038008;28;20998;-57
2022/01/31 02:06:02;;;;;;;17.03;2.10;;;4.80;71.50;;;4.57;51.84;94844.53;5034522;28;20472;-57
2022/01/31 02:08:38;;;;;;;7.07;2.00;;;4.80;70.90;;;4.56;51.90;94848.06;5033516;28;20797;-55
2022/01/31 02:11:06;;;;;;;11.20;2.50;;;4.80;70.90;;;4.53;52.01;94850.88;5037814;28;20467;-57
2022/01/31 02:13:33;;;;;;;12.33;2.60;;;4.70;71.10;;;4.52;51.85;94845.78;5033740;28;20487;-60
2022/01/31 02:16:00;;;;;;;6.47;1.93;;;4.70;71.30;;;4.52;51.78;94845.78;5033589;28;20478;-56
2022/01/31 02:18:29;;;;;;;5.00;2.07;;;4.70;70.70;;;4.51;51.73;94842.34;5039796;28;20534;-54
2022/01/31 02:20:58;;;;;;;10.63;2.10;;;4.70;70.60;;;4.55;51.45;94832.56;5037215;28;20464;-56
2022/01/31 02:23:25;;;;;;;10.30;3.30;;;4.70;70.90;;;4.57;51.88;94835.88;5035291;28;20448;-58
2022/01/31 02:25:57;;;;;;;20.27;2.27;;;4.80;70.60;;;4.56;51.50;94832.44;5039167;28;20472;-56
2022/01/31 02:28:27;;;;;;;11.87;2.67;;;4.80;70.20;;;4.58;51.19;94842.75;5036719;28;20994;-57
2022/01/31 02:30:54;;;;;;;6.13;2.07;;;4.80;70.50;;;4.56;51.37;94832.44;5039521;28;20478;-56
2022/01/31 02:33:22;;;;;;;5.13;1.80;;;4.80;70.20;;;4.55;50.86;94828.16;5034238;28;20462;-55
2022/01/31 02:35:50;;;;;;;7.53;2.77;;;4.80;69.80;;;4.53;50.94;94839.66;5039624;28;20474;-57
2022/01/31 02:38:18;;;;;;;15.80;3.53;;;4.70;69.20;;;4.52;51.13;94845.78;5041643;28;20452;-56
2022/01/31 02:40:46;;;;;;;5.40;1.70;;;4.70;69.40;;;4.52;51.33;94851.81;5031540;28;20469;-55
2022/01/31 02:43:15;;;;;;;13.20;2.30;;;4.70;69.80;;;4.53;51.49;94863.09;5039227;28;20494;-55
2022/01/31 02:45:42;;;;;;;13.83;2.60;;;4.70;69.70;;;4.52;51.25;94861.41;5039456;28;21029;-54
2022/01/31 02:48:10;;;;;;;9.20;2.13;;;4.70;69.70;;;4.51;51.27;94857.97;5039266;28;21030;-56
2022/01/31 02:50:37;;;;;;;17.53;2.63;;;4.70;69.60;;;4.47;51.49;94844.31;5035500;28;20484;-56
2022/01/31 02:53:12;;;;;;;10.03;2.10;;;4.70;69.70;;;4.49;51.09;94852.88;5036155;28;20456;-55
2022/01/31 02:55:43;;;;;;;16.27;2.07;;;4.70;69.30;;;4.48;51.49;94852.97;5029642;28;20488;-59
2022/01/31 02:58:10;;;;;;;14.03;2.70;;;4.70;69.40;;;4.48;51.11;94856.41;5038883;28;20444;-55
2022/01/31 03:00:38;;;;;;;11.30;2.33;;;4.70;69.30;;;4.48;50.97;94860.78;5034279;28;20479;-56
2022/01/31 03:03:05;;;;;;;5.70;1.77;;;4.70;69.00;;;4.49;51.11;94863.28;5036337;28;20449;-56
2022/01/31 03:05:32;;;;;;;7.53;2.10;;;4.70;69.00;;;4.49;51.04;94852.03;5034351;28;20486;-55
2022/01/31 03:08:00;;;;;;;7.53;2.50;;;4.70;68.70;;;4.48;50.82;94858.19;5031826;28;20842;-56
2022/01/31 03:10:27;;;;;;;18.80;2.10;;;4.70;68.40;;;4.47;50.82;94864.31;5034248;28;20639;-56
2022/01/31 03:12:56;;;;;;;10.10;2.00;;;4.70;68.40;;;4.46;50.62;94857.44;5034667;28;20467;-56
2022/01/31 03:15:23;;;;;;;12.03;2.77;;;4.70;68.30;;;4.44;50.78;94861.91;5035426;28;20491;-56
2022/01/31 03:17:51;;;;;;;5.03;2.60;;;4.70;68.40;;;4.45;50.59;94856.63;5038114;28;20464;-56
2022/01/31 03:20:19;;;;;;;7.03;2.83;;;4.70;68.30;;;4.44;51.01;94859.31;5029955;28;20461;-56
2022/01/31 03:22:46;;;;;;;7.67;3.27;;;4.70;68.40;;;4.44;50.72;94877.53;5034857;28;20504;-55
2022/01/31 03:25:14;;;;;;;3.97;1.97;;;4.70;68.50;;;4.42;50.96;94864.63;5035432;28;20448;-56
2022/01/31 03:27:41;;;;;;;9.90;2.90;;;4.70;68.90;;;4.43;50.84;94860.25;5036528;28;20932;-56
2022/01/31 03:30:13;;;;;;;13.03;2.20;;;4.60;68.50;;;4.40;50.66;94863.06;5036724;28;20463;-57
2022/01/31 03:32:40;;;;;;;7.27;2.40;;;4.60;68.40;;;4.41;50.56;94855.13;5029796;28;20444;-55
2022/01/31 03:35:08;;;;;;;10.77;2.40;;;4.60;68.20;;;4.42;50.33;94854.22;5035546;28;21019;-55
2022/01/31 03:37:35;;;;;;;9.43;1.80;;;4.60;68.30;;;4.43;50.71;94857.63;5039546;28;20466;-56
2022/01/31 03:40:03;;;;;;;9.03;2.50;;;4.60;68.20;;;4.43;51.11;94852.44;5041322;28;20443;-56
2022/01/31 03:42:31;;;;;;;14.23;2.17;;;4.70;68.40;;;4.44;50.73;94854.09;5039944;28;20851;-56
2022/01/31 03:44:58;;;;;;;6.70;2.00;;;4.60;68.00;;;4.43;50.86;94858.50;5036906;28;20479;-56
2022/01/31 03:47:27;;;;;;;13.03;2.33;;;4.60;68.20;;;4.44;50.51;94859.31;5039520;28;21195;-56
2022/01/31 03:49:54;;;;;;;12.80;2.23;;;4.60;68.30;;;4.42;50.68;94862.03;5037856;28;20475;-56
2022/01/31 03:52:21;;;;;;;8.53;1.97;;;4.60;68.10;;;4.39;50.81;94862.22;5040914;28;20476;-56
2022/01/31 03:54:49;;;;;;;12.53;1.93;;;4.60;67.80;;;4.38;50.72;94860.56;5039473;28;21004;-56
2022/01/31 03:57:16;;;;;;;8.73;2.40;;;4.60;68.00;;;4.38;50.27;94857.13;5039186;28;21039;-55
2022/01/31 03:59:43;;;;;;;9.70;2.07;;;4.60;67.50;;;4.36;50.48;94857.22;5039749;28;20506;-57
2022/01/31 04:02:10;;;;;;;9.20;2.37;;;4.60;67.80;;;4.36;50.52;94856.41;5037653;28;20480;-55
2022/01/31 04:04:39;;;;;;;7.07;2.20;;;4.60;67.80;;;4.36;50.48;94854.63;5037360;28;20448;-57
2022/01/31 04:07:06;;;;;;;10.70;2.60;;;4.60;67.70;;;4.35;50.23;94852.13;5043072;28;21008;-56
2022/01/31 04:09:34;;;;;;;18.30;2.07;;;4.60;68.10;;;4.35;50.63;94859.94;5037722;28;20456;-56
2022/01/31 04:12:01;;;;;;;6.33;2.00;;;4.60;68.20;;;4.34;50.28;94866.06;5040941;28;20480;-56
2022/01/31 04:14:28;;;;;;;13.97;2.27;;;4.60;67.50;;;4.35;50.39;94867.75;5033696;28;20491;-57
2022/01/31 04:16:56;;;;;;;9.17;2.60;;;4.60;67.80;;;4.33;50.78;94865.25;5036047;28;20823;-55
2022/01/31 04:19:24;;;;;;;7.33;2.27;;;4.60;67.70;;;4.30;50.20;94863.66;5037625;28;20480;-56
2022/01/31 04:21:52;;;;;;;4.43;2.57;;;4.50;67.70;;;4.29;50.55;94867.22;5037221;28;20471;-56
2022/01/31 04:24:23;;;;;;;15.03;2.70;;;4.50;68.50;;;4.27;50.30;94869.06;5038530;28;20677;-57
2022/01/31 04:26:59;;;;;;;13.27;2.83;;;4.50;68.00;;;4.26;50.52;94867.44;5037916;28;20476;-55
2022/01/31 04:29:30;;;;;;;19.10;3.47;;;4.50;68.10;;;4.25;50.94;94864.94;5037773;28;20447;-57
2022/01/31 04:31:58;;;;;;;4.00;1.70;;;4.50;68.40;;;4.24;51.01;94858.88;5039188;28;20472;-55
2022/01/31 04:34:27;;;;;;;16.27;2.37;;;4.50;68.30;;;4.22;50.92;94863.34;5033674;28;20493;-57
2022/01/31 04:36:56;;;;;;;10.10;2.47;;;4.50;68.30;;;4.20;51.18;94862.63;5039610;28;21858;-57
2022/01/31 04:39:24;;;;;;;8.50;2.23;;;4.40;68.60;;;4.18;51.17;94867.06;5034820;28;20451;-57
2022/01/31 04:41:51;;;;;;;10.50;2.80;;;4.40;69.00;;;4.14;50.98;94863.03;5039318;28;20460;-57
2022/01/31 04:44:18;;;;;;;7.93;1.90;;;4.40;69.20;;;4.11;51.67;94860.63;5037267;28;20488;-57
2022/01/31 04:46:49;;;;;;;15.60;2.67;;;4.40;69.20;;;4.08;51.41;94853.03;5037058;28;20538;-58
2022/01/31 04:49:16;;;;;;;14.33;2.50;;;4.30;69.80;;;4.07;52.47;94851.34;5037204;28;20528;-56
2022/01/31 04:51:44;;;;;;;3.70;2.10;;;4.30;71.10;;;4.04;52.21;94854.97;5037325;28;20527;-57
2022/01/31 04:54:12;;;;;;;13.47;4.00;;;4.30;71.10;;;4.03;53.29;94855.94;5044218;28;20509;-57
2022/01/31 04:56:42;;;;;;;6.90;2.73;;;4.20;72.40;;;4.05;53.10;94848.00;5034523;28;20488;-56
2022/01/31 04:59:09;;;;;;;12.23;2.37;;;4.20;71.80;;;4.06;53.40;94849.66;5032922;28;20448;-56
2022/01/31 05:01:38;;;;;;;7.53;2.53;;;4.30;73.50;;;4.07;53.25;94849.56;5036313;28;20510;-56
2022/01/31 05:04:06;;;;;;;7.70;2.50;;;4.30;72.70;;;4.07;52.85;94851.34;5040572;28;20977;-56
2022/01/31 05:06:37;;;;;;;7.40;3.00;;;4.30;72.30;;;4.05;52.28;94848.00;5039058;28;20476;-55
2022/01/31 05:09:04;;;;;;;5.37;2.13;;;4.20;71.00;;;4.02;52.39;94851.66;5039254;28;20487;-62
2022/01/31 05:11:33;;;;;;;8.30;2.57;;;4.20;71.10;;;4.00;52.07;94844.88;5035226;28;20498;-56
2022/01/31 05:14:00;;;;;;;17.30;1.90;;;4.20;71.00;;;3.99;52.19;94851.03;5035049;28;20810;-55
2022/01/31 05:16:28;;;;;;;6.70;2.03;;;4.20;71.00;;;3.97;52.22;94845.06;5035457;28;20472;-57
2022/01/31 05:18:55;;;;;;;3.90;2.13;;;4.20;71.10;;;3.93;52.70;94844.44;5038324;28;20803;-56
2022/01/31 05:21:22;;;;;;;6.73;2.90;;;4.20;71.20;;;3.91;52.19;94847.13;5030860;28;21147;-55
2022/01/31 05:23:49;;;;;;;7.20;2.67;;;4.10;71.00;;;3.86;52.59;94844.00;5035067;28;20444;-56
2022/01/31 05:26:18;;;;;;;9.80;3.13;;;4.10;70.90;;;3.81;51.97;94851.28;5035281;28;20820;-57
2022/01/31 05:28:47;;;;;;;13.10;3.60;;;4.10;70.90;;;3.76;52.95;94850.72;5035527;28;20482;-56
2022/01/31 05:31:14;;;;;;;7.13;2.40;;;4.00;71.10;;;3.72;52.59;94836.28;5036737;28;20464;-56
2022/01/31 05:33:41;;;;;;;19.97;2.90;;;3.90;71.20;;;3.69;52.77;94844.28;5035739;28;20447;-56
2022/01/31 05:36:08;;;;;;;7.80;2.23;;;3.90;71.40;;;3.67;53.10;94848.72;5037520;28;20479;-56
2022/01/31 05:38:38;;;;;;;3.13;2.10;;;3.90;71.80;;;3.67;52.65;94848.72;5034643;28;20500;-56
2022/01/31 05:41:08;;;;;;;11.90;3.20;;;3.90;72.00;;;3.66;52.38;94849.69;5034749;28;20479;-55
2022/01/31 05:43:36;;;;;;;5.90;3.03;;;3.90;71.70;;;3.65;52.86;94850.59;5037911;28;20977;-55
2022/01/31 05:46:04;;;;;;;12.10;3.30;;;3.80;71.40;;;3.63;52.01;94855.06;5033108;28;20476;-56
2022/01/31 05:48:32;;;;;;;5.77;2.50;;;3.90;71.40;;;3.59;52.84;94857.03;5035412;28;20538;-56
2022/01/31 05:50:59;;;;;;;9.37;2.37;;;3.80;71.30;;;3.56;52.77;94858.06;5034731;28;20473;-57
2022/01/31 05:53:26;;;;;;;4.53;2.30;;;3.80;71.00;;;3.53;52.58;94867.81;5036901;28;20468;-57
2022/01/31 05:55:54;;;;;;;3.70;2.50;;;3.80;71.20;;;3.50;52.74;94860.19;5037480;28;20492;-56
2022/01/31 05:58:21;;;;;;;12.97;2.80;;;3.80;71.90;;;3.54;52.58;94865.13;5036562;28;20889;-55
2022/01/31 06:00:48;;;;;;;6.73;2.50;;;3.80;71.50;;;3.54;53.01;94862.50;5035175;28;20507;-57
2022/01/31 06:03:17;;;;;;;10.33;3.23;;;3.80;71.40;;;3.53;52.59;94863.47;5035010;28;20475;-57
2022/01/31 06:05:44;;;;;;;3.10;2.13;;;3.80;71.00;;;3.54;52.49;94859.91;5036841;28;20989;-56
2022/01/31 06:08:12;;;;;;;13.97;2.60;;;3.80;70.90;;;3.54;52.32;94862.50;5032338;28;20460;-56
2022/01/31 06:10:43;;;;;;;9.07;2.93;;;3.80;70.60;;;3.54;52.56;94859.91;5035891;28;20494;-56
2022/01/31 06:13:11;;;;;;;8.20;2.50;;;3.80;70.70;;;3.56;52.16;94854.63;5030767;28;20526;-57
2022/01/31 06:15:38;;;;;;;3.23;2.27;;;3.80;70.60;;;3.64;52.38;94843.72;5032270;28;20492;-57
2022/01/31 06:18:05;;;;;;;11.20;2.40;;;3.90;70.70;;;3.81;52.58;94840.88;5031796;28;20455;-56
2022/01/31 06:20:34;;;;;;;9.87;2.77;;;4.00;71.20;;;4.07;52.64;94840.94;5033892;28;21241;-56
2022/01/31 06:23:01;;;;;;;13.03;3.53;;;4.20;71.20;;;4.39;52.04;94843.19;5034713;28;20452;-56
2022/01/31 06:25:29;;;;;;;8.77;3.37;;;4.40;71.30;;;4.73;51.95;94839.13;5034655;28;20468;-56
2022/01/31 06:27:56;;;;;;;6.27;3.90;;;4.70;71.50;;;5.11;50.93;94827.81;5037412;28;20535;-57
2022/01/31 06:30:24;;;;;;;15.13;4.23;;;5.10;70.10;;;5.51;50.12;94834.56;5033522;28;20460;-57
2022/01/31 06:32:51;;;;;;;5.93;3.13;;;5.50;68.80;;;5.83;49.20;94826.19;5030368;28;20457;-56
2022/01/31 06:35:18;;;;;;;6.33;2.50;;;5.80;67.60;;;6.17;48.62;94826.38;5036734;28;20506;-57
2022/01/31 06:37:47;;;;;;;14.00;3.77;;;6.10;66.50;;;6.47;48.05;94833.66;5031080;28;20835;-56
2022/01/31 06:40:15;;;;;;;13.00;3.30;;;6.30;65.60;;;6.86;47.80;94841.19;5036187;28;20452;-57
2022/01/31 06:42:46;;;;;;;6.03;2.10;;;6.70;65.00;;;7.29;46.83;94843.09;5039000;28;20448;-56
2022/01/31 06:45:14;;;;;;;9.43;3.07;;;7.00;64.80;;;7.71;46.43;94840.63;5035564;28;20447;-57
2022/01/31 06:47:41;;;;;;;5.73;3.00;;;7.50;62.90;;;8.14;45.53;94834.53;5033901;28;20473;-57
2022/01/31 06:50:09;;;;;;;7.63;3.00;;;7.90;61.80;;;8.56;44.87;94826.72;5033098;28;20464;-57
2022/01/31 06:52:38;;;;;;;10.70;4.70;;;8.40;59.80;;;9.08;44.50;94828.53;5035880;28;21095;-56
2022/01/31 06:55:07;;;;;;;12.33;5.23;;;8.90;59.20;;;9.55;43.36;94836.69;5037210;28;20484;-55
2022/01/31 06:57:35;;;;;;;6.37;4.03;;;9.40;57.80;;;10.01;42.84;94819.47;5034530;28;20518;-55
2022/01/31 07:00:05;;;;;;;9.67;4.03;;;9.80;56.90;;;10.36;41.60;94817.28;5037447;28;20463;-56
2022/01/31 07:02:32;;;;;;;14.00;3.90;;;10.20;53.70;;;10.68;41.32;94801.19;5036029;28;20464;-57
2022/01/31 07:05:00;;;;;;;6.83;3.73;;;10.60;53.60;;;11.04;40.93;94792.63;5032250;28;20547;-57
2022/01/31 07:07:27;;;;;;;7.87;3.00;;;11.00;53.10;;;11.37;40.48;94788.59;5037328;28;20944;-57
2022/01/31 07:09:55;;;;;;;11.23;4.00;;;11.40;52.40;;;11.62;40.09;94800.25;5038908;28;20929;-56
2022/01/31 07:12:30;;;;;;;8.37;3.73;;;11.70;51.20;;;11.97;39.70;94787.28;5040012;28;20475;-57
2022/01/31 07:14:58;;;;;;;12.80;4.47;;;12.00;50.00;;;12.49;39.37;94787.38;5037851;28;20494;-56
2022/01/31 07:17:25;;;;;;;8.70;2.90;;;12.50;49.90;;;13.04;38.66;94791.56;5040606;28;20471;-57
2022/01/31 07:19:53;;;;;;;8.87;2.97;;;13.10;49.50;;;13.55;37.60;94799.53;5038089;28;20976;-55
2022/01/31 07:22:26;;;;;;;7.60;2.73;;;13.60;48.40;;;13.98;37.41;94794.22;5039405;28;20468;-56
2022/01/31 07:25:02;;;;;;;7.23;2.80;;;14.10;47.20;;;14.37;37.03;94792.75;5037985;28;20604;-55
2022/01/31 07:27:31;;;;;;;7.97;3.97;;;14.40;46.40;;;14.77;36.31;94788.47;5042436;28;20464;-56
2022/01/31 07:29:58;;;;;;;7.20;3.00;;;14.70;45.60;;;15.14;35.41;94787.09;5041484;28;20456;-56
2022/01/31 07:32:26;;;;;;;13.80;4.30;;;15.10;45.10;;;15.47;34.86;94779.00;5036605;28;21059;-65
2022/01/31 07:34:55;;;;;;;10.83;4.70;;;15.30;43.70;;;15.65;33.32;94774.28;5039832;28;20816;-57
2022/01/31 07:37:23;;;;;;;11.93;5.53;;;15.50;42.90;;;15.87;34.42;94772.69;5039841;28;20464;-56
2022/01/31 07:39:50;;;;;;;13.83;7.07;;;15.70;43.50;;;16.13;34.12;94764.41;5040781;28;20539;-57
2022/01/31 07:42:18;;;;;;;20.07;6.80;;;15.90;42.10;;;16.35;32.96;94769.06;5036554;28;20530;-56
2022/01/31 07:44:47;;;;;;;7.13;4.40;;;16.10;41.60;;;16.61;33.88;94758.06;5038567;28;20952;-55
2022/01/31 07:47:14;;;;;;;6.77;2.60;;;16.40;42.40;;;16.58;29.47;94753.13;5041560;28;20985;-57
2022/01/31 07:49:41;;;;;;;7.20;3.87;;;16.60;38.30;;;16.46;31.54;94764.16;5033940;28;20535;-56
2022/01/31 07:52:09;;;;;;;13.87;4.67;;;16.50;38.80;;;16.43;31.79;94759.19;5041347;28;20472;-57
2022/01/31 07:54:36;;;;;;;4.23;3.30;;;16.50;39.10;;;16.46;31.51;94750.06;5043122;28;20483;-57
2022/01/31 07:57:04;;;;;;;10.20;3.17;;;16.50;38.80;;;16.62;30.89;94746.44;5040331;28;20492;-57
2022/01/31 07:59:31;;;;;;;8.50;3.80;;;16.60;38.30;;;16.95;31.11;94751.47;5039695;28;20457;-57
2022/01/31 08:02:00;;;;;;;9.40;4.90;;;16.80;38.70;;;17.11;29.96;94753.94;5036927;28;21047;-57
2022/01/31 08:04:27;;;;;;;13.67;4.80;;;16.90;37.40;;;17.08;30.87;94741.00;5040269;28;20599;-57
2022/01/31 08:06:55;;;;;;;14.20;4.10;;;17.00;37.80;;;17.17;29.90;94745.22;5038401;28;20465;-57
2022/01/31 08:09:22;;;;;;;9.10;4.10;;;17.00;36.50;;;17.21;29.66;94743.03;5036701;28;20468;-58
2022/01/31 08:11:49;;;;;;;16.47;5.83;;;17.10;36.90;;;17.04;29.55;94742.41;5037281;28;20531;-56
2022/01/31 08:14:18;;;;;;;20.40;8.60;;;16.90;36.40;;;16.95;29.49;94740.84;5034411;28;20927;-57
2022/01/31 08:16:45;;;;;;;13.17;4.20;;;16.80;36.40;;;16.70;29.20;94738.41;5036377;28;20502;-57
2022/01/31 08:19:14;;;;;;;6.93;3.20;;;16.60;35.60;;;16.39;29.47;94731.38;5039732;28;20532;-58
2022/01/31 08:21:41;;;;;;;5.90;2.57;;;16.40;35.90;;;16.36;28.32;94733.53;5036000;28;20475;-57
2022/01/31 08:24:09;;;;;;;6.60;3.03;;;16.20;34.50;;;16.38;29.01;94726.25;5038498;28;20892;-57
2022/01/31 08:26:37;;;;;;;9.50;3.37;;;16.20;34.80;;;16.50;29.64;94722.16;5040983;28;20475;-57
2022/01/31 08:29:14;;;;;;;8.80;3.10;;;16.30;36.80;;;16.72;28.97;94725.75;5034260;28;20460;-55
2022/01/31 08:31:41;;;;;;;9.70;3.10;;;16.40;36.10;;;17.01;28.47;94724.19;5034538;28;20464;-57
2022/01/31 08:34:23;;;;;;;8.20;3.27;;;16.60;35.10;;;17.38;28.71;94725.88;5040962;28;20822;-58
2022/01/31 08:36:52;;;;;;;4.80;2.50;;;16.90;35.40;;;17.62;26.75;94715.94;5037190;28;20500;-57
2022/01/31 08:39:20;;;;;;;6.03;2.60;;;17.20;33.90;;;17.60;28.35;94722.44;5036107;28;20448;-58
2022/01/31 08:41:50;;;;;;;9.00;2.37;;;17.20;34.00;;;17.52;28.17;94729.53;5041956;28;20537;-55
2022/01/31 08:44:19;;;;;;;7.23;2.27;;;17.20;34.00;;;17.30;27.11;94725.97;5034713;28;20465;-58
2022/01/31 08:46:47;;;;;;;4.50;3.40;;;17.00;33.30;;;16.90;28.04;94719.28;5037766;28;20473;-58
2022/01/31 08:49:15;;;;;;;8.60;4.27;;;16.80;34.50;;;16.59;28.23;94720.22;5040986;28;20453;-58
2022/01/31 08:51:43;;;;;;;11.90;3.20;;;16.40;34.00;;;16.31;28.75;94728.78;5038613;28;20476;-57
2022/01/31 08:54:11;;;;;;;9.83;2.70;;;16.20;34.80;;;16.05;28.78;94734.44;5037821;28;21021;-57
2022/01/31 08:56:43;;;;;;;10.03;3.60;;;15.90;34.90;;;15.95;28.88;94737.34;5037257;28;20492;-56
2022/01/31 08:59:12;;;;;;;10.50;3.10;;;15.70;34.40;;;16.08;28.74;94740.25;5034185;28;20460;-57
2022/01/31 09:01:39;;;;;;;10.83;4.70;;;15.70;35.40;;;16.06;27.67;94739.56;5036840;28;20500;-57
2022/01/31 09:04:09;;;;;;;12.43;2.90;;;15.70;34.40;;;16.11;27.69;94731.94;5034741;28;20463;-56
2022/01/31 09:06:36;;;;;;;4.73;2.70;;;15.70;33.80;;;16.41;27.84;94716.09;5036974;28;20468;-56
2022/01/31 09:09:08;;;;;;;19.53;2.57;;;15.90;34.20;;;16.66;27.38;94710.53;5042069;28;20562;-57
2022/01/31 09:11:37;;;;;;;8.23;2.70;;;16.10;33.30;;;16.87;26.56;94709.03;5038006;28;20637;-56
2022/01/31 09:14:05;;;;;;;5.70;2.53;;;16.40;32.40;;;17.17;27.50;94712.53;5035362;28;20889;-57
2022/01/31 09:16:32;;;;;;;7.83;2.90;;;16.70;33.50;;;17.39;27.05;94705.44;5035515;28;20492;-56
2022/01/31 09:19:00;;;;;;;10.00;2.70;;;17.00;33.20;;;17.63;27.20;94711.44;5037480;28;20846;-57
2022/01/31 09:21:27;;;;;;;6.27;2.60;;;17.20;33.40;;;17.77;26.98;94707.91;5030862;28;20478;-57
2022/01/31 09:23:54;;;;;;;10.40;3.33;;;17.30;33.30;;;17.77;25.12;94702.59;5036988;28;20457;-57
2022/01/31 09:26:23;;;;;;;5.10;2.90;;;17.30;31.40;;;17.79;25.91;94699.75;5033248;28;20559;-57
2022/01/31 09:28:52;;;;;;;7.60;2.63;;;17.40;31.90;;;17.85;26.25;94691.03;5036697;28;20460;-57
2022/01/31 09:31:20;;;;;;;5.63;2.40;;;17.40;31.90;;;17.76;26.62;94686.81;5035787;28;20468;-58
2022/01/31 09:33:47;;;;;;;10.10;3.43;;;17.40;32.50;;;17.61;25.42;94681.53;5038509;28;20515;-57
2022/01/31 09:36:15;;;;;;;4.33;2.60;;;17.30;30.60;;;17.59;24.83;94684.38;5034800;28;20615;-56
2022/01/31 09:38:42;;;;;;;7.97;2.40;;;17.20;30.00;;;17.66;25.15;94676.47;5034988;28;20452;-57
2022/01/31 09:41:12;;;;;;;9.40;3.00;;;17.30;31.20;;;17.74;25.55;94676.38;5035879;28;20482;-57
2022/01/31 09:44:09;;;;;;;9.90;3.37;;;17.30;30.80;;;17.81;25.13;94661.28;5036790;28;20455;-58
2022/01/31 09:49:23;;;;;;;7.67;2.33;;;17.40;31.70;;;17.69;25.99;94641.50;5034654;28;20555;-58
2022/01/31 09:51:50;;;;;;;4.40;2.47;;;17.40;31.60;;;17.79;25.71;94647.34;5033914;28;21061;-58
2022/01/31 09:54:18;;;;;;;7.40;2.50;;;17.40;31.10;;;17.87;25.26;94631.25;5040888;28;20460;-57
2022/01/31 09:56:46;;;;;;;5.33;2.17;;;17.40;31.10;;;17.65;26.21;94638.44;5037805;28;20488;-57
2022/01/31 09:59:16;;;;;;;2.23;2.07;;;17.30;31.60;;;17.14;26.44;94628.66;5041446;28;20467;-58
2022/01/31 10:01:46;;;;;;;4.77;2.60;;;17.00;31.20;;;16.53;26.37;94620.91;5036272;28;20468;-58
2022/01/31 10:04:17;;;;;;;6.60;2.20;;;16.50;31.20;;;16.02;26.24;94621.56;5040400;28;20530;-57
2022/01/31 10:06:46;;;;;;;8.50;2.67;;;16.00;31.30;;;15.61;27.04;94605.94;5033187;28;21029;-57
2022/01/31 10:09:17;;;;;;;7.37;2.70;;;15.60;31.50;;;15.40;27.05;94604.78;5035915;28;20645;-56
2022/01/31 10:11:50;;;;;;;9.43;4.07;;;15.30;32.10;;;15.12;27.77;94600.97;5034988;28;20472;-57
2022/01/31 10:17:11;;;;;;;4.83;2.20;;;14.60;32.70;;;14.13;28.29;94580.19;5039341;28;20485;-57
2022/01/31 10:19:43;;;;;;;7.07;3.57;;;14.20;33.10;;;13.80;28.59;94570.47;5039318;28;20440;-57
2022/01/31 10:22:13;;;;;;;6.73;2.57;;;13.90;33.90;;;13.65;30.01;94569.50;5042090;28;20471;-58
2022/01/31 10:24:41;;;;;;;5.70;3.13;;;13.70;36.00;;;13.90;29.83;94562.34;5035711;28;20519;-57
2022/01/31 10:27:15;;;;;;;8.23;3.13;;;13.80;36.40;;;14.53;30.04;94552.75;5041802;28;21003;-57
2022/01/31 10:29:46;;;;;;;11.77;4.43;;;14.10;36.90;;;15.11;29.48;94551.66;5034765;28;20458;-57
2022/01/31 10:32:16;;;;;;;6.77;2.83;;;14.60;36.30;;;15.52;29.04;94535.44;5028059;28;20983;-57
2022/01/31 10:34:50;;;;;;;11.93;4.37;;;15.00;35.70;;;15.87;29.55;94536.66;5027871;28;20459;-58
2022/01/31 10:37:19;;;;;;;5.23;2.80;;;15.40;37.00;;;16.20;29.72;94524.88;5034523;28;20503;-58